createdAt,value
2023-01-20T00:01:38.705Z,0.24
2023-01-20T00:04:06.406Z,0.25
2023-01-20T00:06:33.553Z,0.19
2023-01-20T00:09:02.710Z,0.25
2023-01-20T00:11:30.193Z,-0.04
2023-01-20T00:13:59.197Z,0.26
2023-01-20T00:16:26.749Z,0.25
2023-01-20T00:18:54.556Z,0.19
2023-01-20T00:21:21.681Z,0.20
2023-01-20T00:23:48.892Z,0.17
2023-01-20T00:26:20.561Z,0.12
2023-01-20T00:28:48.418Z,-0.32
2023-01-20T00:31:23.766Z,0.09
2023-01-20T00:33:52.038Z,-0.10
2023-01-20T00:36:20.241Z,0.11
2023-01-20T00:38:47.500Z,0.10
2023-01-20T00:41:14.918Z,0.09
2023-01-20T00:43:42.303Z,-0.15
2023-01-20T00:46:09.297Z,0.11
2023-01-20T00:48:37.137Z,0.08
2023-01-20T00:51:05.494Z,-0.11
2023-01-20T00:53:32.643Z,-0.03
2023-01-20T00:55:59.586Z,-0.10
2023-01-20T00:58:26.521Z,0.00
2023-01-20T01:00:55.313Z,-0.17
2023-01-20T01:03:23.093Z,-0.34
2023-01-20T01:05:49.889Z,-0.24
2023-01-20T01:08:16.676Z,-0.12
2023-01-20T01:10:43.524Z,-0.13
2023-01-20T01:13:11.178Z,-0.32
2023-01-20T01:15:37.982Z,-0.28
2023-01-20T01:18:04.950Z,0.01
2023-01-20T01:20:31.606Z,-0.04
2023-01-20T01:22:58.411Z,0.15
2023-01-20T01:25:25.284Z,0.30
2023-01-20T01:27:52.045Z,0.30
2023-01-20T01:30:18.856Z,0.37
2023-01-20T01:32:45.686Z,0.44
2023-01-20T01:35:12.644Z,0.45
2023-01-20T01:37:39.580Z,0.43
2023-01-20T01:40:07.118Z,0.63
2023-01-20T01:42:33.907Z,0.14
2023-01-20T01:45:13.858Z,0.70
2023-01-20T01:47:46.844Z,0.74
2023-01-20T01:50:25.014Z,0.71
2023-01-20T01:52:54.281Z,0.80
2023-01-20T01:55:24.737Z,0.77
2023-01-20T01:57:51.791Z,0.81
2023-01-20T02:00:19.214Z,0.84
2023-01-20T02:02:45.882Z,0.87
2023-01-20T02:05:15.063Z,0.82
2023-01-20T02:07:46.287Z,0.79
2023-01-20T02:10:13.728Z,0.84
2023-01-20T02:12:42.647Z,0.72
2023-01-20T02:15:09.748Z,0.81
2023-01-20T02:17:41.728Z,0.92
2023-01-20T02:20:30.206Z,0.94
2023-01-20T02:23:21.505Z,0.93
2023-01-20T02:25:53.931Z,0.93
2023-01-20T02:28:35.022Z,0.96
2023-01-20T02:31:37.142Z,0.96
2023-01-20T02:34:35.368Z,0.88
2023-01-20T02:37:13.644Z,0.99
2023-01-20T02:39:51.471Z,0.82
2023-01-20T02:42:41.290Z,1.05
2023-01-20T02:45:25.988Z,1.07
2023-01-20T02:48:15.687Z,1.10
2023-01-20T02:51:21.527Z,1.12
2023-01-20T02:53:56.137Z,0.95
2023-01-20T02:56:27.010Z,1.07
2023-01-20T02:59:02.356Z,1.10
2023-01-20T03:01:34.161Z,1.19
2023-01-20T03:04:04.196Z,1.21
2023-01-20T03:06:37.254Z,1.19
2023-01-20T03:09:09.319Z,1.18
2023-01-20T03:11:41.109Z,1.12
2023-01-20T03:14:12.578Z,1.05
2023-01-20T03:16:40.517Z,1.12
2023-01-20T03:19:07.766Z,1.10
2023-01-20T03:21:35.066Z,1.03
2023-01-20T03:24:04.634Z,1.07
2023-01-20T03:26:31.517Z,1.02
2023-01-20T03:28:59.229Z,0.85
2023-01-20T03:31:34.324Z,1.09
2023-01-20T03:34:06.821Z,0.98
2023-01-20T03:36:34.327Z,1.00
2023-01-20T03:39:01.431Z,0.84
2023-01-20T03:41:50.926Z,1.05
2023-01-20T03:44:47.965Z,1.00
2023-01-20T03:47:29.142Z,0.95
2023-01-20T03:50:20.594Z,1.03
2023-01-20T03:52:58.282Z,0.98
2023-01-20T03:55:33.717Z,0.94
2023-01-20T03:58:08.652Z,0.96
2023-01-20T04:00:39.602Z,1.02
2023-01-20T04:03:13.296Z,0.81
2023-01-20T04:05:42.490Z,0.92
2023-01-20T04:08:11.875Z,1.00
2023-01-20T04:10:41.193Z,0.94
2023-01-20T04:13:07.971Z,0.92
2023-01-20T04:15:38.753Z,1.00
2023-01-20T04:18:12.679Z,1.00
2023-01-20T04:20:40.632Z,1.00
2023-01-20T04:23:12.396Z,0.98
2023-01-20T04:25:39.378Z,0.86
2023-01-20T04:28:06.247Z,0.96
2023-01-20T04:30:33.129Z,1.02
2023-01-20T04:33:00.089Z,0.92
2023-01-20T04:35:27.062Z,0.83
2023-01-20T04:37:53.715Z,1.04
2023-01-20T04:40:20.487Z,1.08
2023-01-20T04:42:47.254Z,0.85
2023-01-20T04:45:17.794Z,1.12
2023-01-20T04:47:44.621Z,1.11
2023-01-20T04:50:12.314Z,1.03
2023-01-20T04:52:39.006Z,1.09
2023-01-20T04:55:06.099Z,1.11
2023-01-20T04:57:32.911Z,1.09
2023-01-20T04:59:59.627Z,0.91
2023-01-20T05:02:26.462Z,1.01
2023-01-20T05:04:53.307Z,0.98
2023-01-20T05:07:19.985Z,1.17
2023-01-20T05:09:46.827Z,1.16
2023-01-20T08:01:56.550Z,1.04
2023-01-20T08:04:23.155Z,1.04
2023-01-20T08:06:50.154Z,1.08
2023-01-20T08:09:16.956Z,0.98
2023-01-20T08:11:43.800Z,0.99
2023-01-20T08:14:10.574Z,1.15
2023-01-20T08:16:37.374Z,1.01
2023-01-20T08:19:04.503Z,1.20
2023-01-20T08:21:33.127Z,0.99
2023-01-20T08:24:02.201Z,1.33
2023-01-20T08:26:31.351Z,1.33
2023-01-20T08:29:06.487Z,1.36
2023-01-20T08:31:33.610Z,1.42
2023-01-20T08:34:00.751Z,1.46
2023-01-20T08:36:31.939Z,1.46
2023-01-20T08:39:02.568Z,1.46
2023-01-20T08:41:33.078Z,1.54
2023-01-20T08:44:01.771Z,1.55
2023-01-20T08:46:28.788Z,1.47
2023-01-20T08:48:56.486Z,1.56
2023-01-20T08:51:29.283Z,1.60
2023-01-20T08:53:56.221Z,1.53
2023-01-20T08:56:23.584Z,1.61
2023-01-20T08:58:51.155Z,1.66
2023-01-20T09:01:21.332Z,1.40
2023-01-20T09:04:03.363Z,1.68
2023-01-20T09:06:36.732Z,1.70
2023-01-20T09:09:04.633Z,1.70
2023-01-20T09:11:31.993Z,1.76
2023-01-20T09:13:58.804Z,1.79
2023-01-20T09:16:25.592Z,1.84
2023-01-20T09:18:52.492Z,1.70
2023-01-20T09:21:19.341Z,1.81
2023-01-20T09:23:48.407Z,1.72
2023-01-20T09:26:22.797Z,1.82
2023-01-20T09:29:09.345Z,1.70
2023-01-20T09:31:44.569Z,1.78
2023-01-20T09:34:19.718Z,1.64
2023-01-20T09:36:50.120Z,1.71
2023-01-20T09:39:36.480Z,1.81
2023-01-20T09:42:32.907Z,1.75
2023-01-20T09:45:26.287Z,1.69
2023-01-20T09:48:14.145Z,1.73
2023-01-20T09:51:13.794Z,1.44
2023-01-20T09:53:54.365Z,1.83
2023-01-20T09:56:23.035Z,1.85
2023-01-20T09:59:12.470Z,1.83
2023-01-20T10:01:46.657Z,1.75
2023-01-20T10:04:29.920Z,1.78
2023-01-20T10:07:22.756Z,1.84
2023-01-20T10:10:18.291Z,1.75
2023-01-20T10:12:54.916Z,1.87
2023-01-20T10:15:34.087Z,1.89
2023-01-20T10:18:06.802Z,1.94
2023-01-20T10:20:45.565Z,1.97
2023-01-20T10:23:33.980Z,1.84
2023-01-20T10:26:11.820Z,2.06
2023-01-20T10:28:44.277Z,1.65
2023-01-20T10:31:14.645Z,2.15
2023-01-20T10:33:44.931Z,1.83
2023-01-20T10:36:31.567Z,2.17
2023-01-20T10:38:59.698Z,2.09
2023-01-20T10:41:42.287Z,2.20
2023-01-20T10:44:14.872Z,2.01
2023-01-20T10:46:54.007Z,2.08
2023-01-20T10:49:52.671Z,2.10
2023-01-20T10:52:41.253Z,2.12
2023-01-20T10:55:25.543Z,2.15
2023-01-20T10:57:59.167Z,2.08
2023-01-20T11:00:29.998Z,1.81
2023-01-20T11:03:02.444Z,2.09
2023-01-20T11:05:41.163Z,2.16
2023-01-20T11:08:16.706Z,2.23
2023-01-20T11:10:43.824Z,2.15
2023-01-20T11:13:11.741Z,2.11
2023-01-20T11:15:45.651Z,2.38
2023-01-20T11:18:15.351Z,2.40
2023-01-20T11:20:54.370Z,2.42
2023-01-20T11:23:33.188Z,2.33
2023-01-20T11:26:02.501Z,2.15
2023-01-20T11:28:36.988Z,2.36
2023-01-20T11:31:04.801Z,2.19
2023-01-20T11:33:31.671Z,2.22
2023-01-20T11:36:19.052Z,2.36
2023-01-20T11:38:49.062Z,2.38
2023-01-20T11:41:24.203Z,2.38
2023-01-20T11:43:53.428Z,2.26
2023-01-20T11:46:24.361Z,2.44
2023-01-20T11:49:17.910Z,2.41
2023-01-20T11:51:49.140Z,2.47
2023-01-20T11:54:20.707Z,2.44
2023-01-20T11:56:52.092Z,2.44
2023-01-20T11:59:24.471Z,2.47
2023-01-20T12:01:58.075Z,2.44
2023-01-20T12:04:36.697Z,2.45
2023-01-20T12:07:18.310Z,2.33
2023-01-20T12:09:50.605Z,2.40
2023-01-20T12:12:49.431Z,2.34
2023-01-20T12:15:21.344Z,2.20
2023-01-20T12:18:16.790Z,2.21
2023-01-20T12:20:56.170Z,2.28
2023-01-20T12:23:45.892Z,2.21
2023-01-20T12:26:15.171Z,2.19
2023-01-20T12:29:03.096Z,2.19
2023-01-20T12:31:31.154Z,1.88
2023-01-20T12:34:07.083Z,2.22
2023-01-20T12:36:39.911Z,2.22
2023-01-20T12:39:17.865Z,2.19
2023-01-20T12:41:47.596Z,2.19
2023-01-20T12:44:39.056Z,2.19
2023-01-20T12:47:18.276Z,2.19
2023-01-20T12:50:05.256Z,2.18
2023-01-20T12:52:50.650Z,2.21
2023-01-20T12:55:33.045Z,2.22
2023-01-20T12:58:18.554Z,2.22
2023-01-20T13:01:04.353Z,2.23
2023-01-20T13:03:40.196Z,2.28
2023-01-20T13:06:25.468Z,2.31
2023-01-20T13:09:01.232Z,2.34
2023-01-20T13:11:47.920Z,2.36
2023-01-20T13:14:21.249Z,2.32
2023-01-20T13:16:56.670Z,2.32
2023-01-20T13:19:33.278Z,2.21
2023-01-20T13:22:11.064Z,2.24
2023-01-20T13:24:41.858Z,2.24
2023-01-20T13:27:10.013Z,2.10
2023-01-20T13:29:36.695Z,2.28
2023-01-20T13:32:05.057Z,2.25
2023-01-20T13:34:34.258Z,2.20
2023-01-20T13:37:04.067Z,2.24
2023-01-20T13:39:40.703Z,2.25
2023-01-20T13:42:38.445Z,2.27
2023-01-20T13:45:14.673Z,2.32
2023-01-20T13:47:50.485Z,2.38
2023-01-20T13:50:33.638Z,2.39
2023-01-20T13:53:00.283Z,2.43
2023-01-20T13:55:49.547Z,2.43
2023-01-20T13:58:31.702Z,2.33
2023-01-20T14:01:03.860Z,2.40
2023-01-20T14:03:36.289Z,2.25
2023-01-20T14:06:18.487Z,2.39
2023-01-20T14:08:48.237Z,2.24
2023-01-20T14:11:21.885Z,2.32
2023-01-20T14:13:59.684Z,2.24
2023-01-20T14:16:36.719Z,2.36
2023-01-20T14:19:34.887Z,2.33
2023-01-20T14:22:04.491Z,2.33
2023-01-20T14:24:37.360Z,2.37
2023-01-20T14:27:32.477Z,2.23
2023-01-20T14:30:27.640Z,2.19
2023-01-20T14:32:55.256Z,2.37
2023-01-20T14:35:33.719Z,2.34
2023-01-20T14:38:01.163Z,2.35
2023-01-20T14:40:35.367Z,2.36
2023-01-20T14:43:12.319Z,2.24
2023-01-20T14:45:43.584Z,2.35
2023-01-20T14:48:13.661Z,2.32
2023-01-20T14:50:49.840Z,2.42
2023-01-20T14:53:16.494Z,2.39
2023-01-20T14:55:56.400Z,2.22
2023-01-20T14:58:24.254Z,2.33
2023-01-20T15:00:53.472Z,2.29
2023-01-20T15:03:25.441Z,2.23
2023-01-20T15:06:01.574Z,2.20
2023-01-20T15:08:34.386Z,2.18
2023-01-20T15:11:19.602Z,2.16
2023-01-20T15:13:57.381Z,2.13
2023-01-20T15:16:24.008Z,2.12
2023-01-20T15:19:16.513Z,2.13
2023-01-20T15:21:46.176Z,2.08
2023-01-20T15:24:23.321Z,2.15
2023-01-20T15:26:52.258Z,2.11
2023-01-20T15:29:21.942Z,2.16
2023-01-20T15:31:49.941Z,1.99
2023-01-20T15:34:17.575Z,2.03
2023-01-20T15:36:45.795Z,2.07
2023-01-20T15:39:20.595Z,1.99
2023-01-20T15:41:48.842Z,2.10
2023-01-20T15:44:15.789Z,2.12
2023-01-20T15:46:42.797Z,2.11
2023-01-20T15:49:14.843Z,2.20
2023-01-20T15:51:42.769Z,2.21
2023-01-20T15:54:10.684Z,2.11
2023-01-20T15:56:40.570Z,2.09
2023-01-20T15:59:13.142Z,2.18
2023-01-20T16:01:40.170Z,2.23
2023-01-20T16:04:06.952Z,2.03
2023-01-20T16:06:34.830Z,2.13
2023-01-20T16:09:03.581Z,2.13
2023-01-20T16:11:30.314Z,1.93
2023-01-20T16:13:58.081Z,2.13
2023-01-20T16:16:26.791Z,2.09
2023-01-20T16:18:55.500Z,2.05
2023-01-20T16:21:22.408Z,1.89
2023-01-20T16:23:49.162Z,1.71
2023-01-20T16:26:22.952Z,1.75
2023-01-20T16:28:51.141Z,1.99
2023-01-20T16:31:18.430Z,1.65
2023-01-20T16:33:45.416Z,1.95
2023-01-20T16:36:14.310Z,1.80
2023-01-20T16:38:41.557Z,2.02
2023-01-20T16:41:21.729Z,2.04
2023-01-20T16:43:49.771Z,1.97
2023-01-20T16:46:31.620Z,2.08
2023-01-20T16:49:03.498Z,1.95
2023-01-20T16:51:32.728Z,2.17
2023-01-20T16:54:01.369Z,2.19
2023-01-20T16:56:31.383Z,2.18
2023-01-20T16:59:01.649Z,2.16
2023-01-20T17:01:30.625Z,2.07
2023-01-20T17:03:59.880Z,2.26
2023-01-20T17:06:29.465Z,2.02
2023-01-20T17:08:58.030Z,2.32
2023-01-20T17:11:30.637Z,2.20
2023-01-20T17:13:58.803Z,2.30
2023-01-20T17:16:28.368Z,2.18
2023-01-20T17:18:58.638Z,2.36
2023-01-20T17:21:28.027Z,2.35
2023-01-20T17:23:56.954Z,2.35
2023-01-20T17:26:24.477Z,1.72
2023-01-20T17:29:02.526Z,2.34
2023-01-20T17:31:31.983Z,2.25
2023-01-20T17:33:58.933Z,2.29
2023-01-20T17:36:25.695Z,2.31
2023-01-20T17:38:52.582Z,2.49
2023-01-20T17:41:19.308Z,2.43
2023-01-20T17:43:46.646Z,2.44
2023-01-20T17:46:13.780Z,2.41
2023-01-20T17:48:40.608Z,2.33
2023-01-20T17:51:12.860Z,2.36
2023-01-20T17:53:40.016Z,2.37
2023-01-20T17:56:12.901Z,2.39
2023-01-20T17:58:41.601Z,2.25
2023-01-20T18:01:21.883Z,2.41
2023-01-20T18:03:50.870Z,2.37
2023-01-20T18:06:19.582Z,2.44
2023-01-20T18:08:54.232Z,2.47
2023-01-20T18:11:23.183Z,2.44
2023-01-20T18:13:52.292Z,2.43
2023-01-20T18:16:21.154Z,2.43
2023-01-20T18:18:49.398Z,2.38
2023-01-20T18:21:18.588Z,2.38
2023-01-20T18:23:46.995Z,2.33
2023-01-20T18:26:15.989Z,2.29
2023-01-20T18:28:43.326Z,2.25
2023-01-20T18:31:16.901Z,2.18
2023-01-20T18:33:47.691Z,2.34
2023-01-20T18:36:15.726Z,2.31
2023-01-20T18:38:45.943Z,2.25
2023-01-20T18:41:14.472Z,2.18
2023-01-20T18:43:41.295Z,2.10
2023-01-20T18:46:09.326Z,2.18
2023-01-20T18:48:40.463Z,2.17
2023-01-20T18:51:10.444Z,1.89
2023-01-20T18:53:37.231Z,1.95
2023-01-20T18:56:06.684Z,2.07
2023-01-20T18:58:34.809Z,2.00
2023-01-20T19:01:09.115Z,1.92
2023-01-20T19:03:37.583Z,1.78
2023-01-20T19:06:07.864Z,1.91
2023-01-20T19:08:34.846Z,1.89
2023-01-20T19:11:03.575Z,1.91
2023-01-20T19:13:30.327Z,1.67
2023-01-20T19:15:57.532Z,1.69
2023-01-20T19:18:24.967Z,1.98
2023-01-20T19:20:51.853Z,1.99
2023-01-20T19:23:19.107Z,1.91
2023-01-20T19:25:45.854Z,1.91
2023-01-20T19:28:14.361Z,1.97
2023-01-20T19:30:41.441Z,1.97
2023-01-20T19:33:12.302Z,1.88
2023-01-20T19:35:41.227Z,1.98
2023-01-20T19:38:08.870Z,1.90
2023-01-20T19:40:35.899Z,1.85
2023-01-20T19:43:02.577Z,1.80
2023-01-20T19:45:44.830Z,1.93
2023-01-20T19:48:12.363Z,1.75
2023-01-20T19:50:39.683Z,1.54
2023-01-20T19:53:06.451Z,1.73
2023-01-20T19:55:33.195Z,1.84
2023-01-20T19:57:59.887Z,1.37
2023-01-20T20:00:26.523Z,1.82
2023-01-20T20:02:54.669Z,1.52
2023-01-20T20:05:21.646Z,1.68
2023-01-20T20:07:48.503Z,1.76
2023-01-20T20:10:18.279Z,1.81
2023-01-20T20:12:45.342Z,1.60
2023-01-20T20:15:12.300Z,1.57
2023-01-20T20:17:39.250Z,1.71
2023-01-20T20:20:06.205Z,1.67
2023-01-20T20:22:32.855Z,1.69
2023-01-20T20:24:59.692Z,1.66
2023-01-20T20:27:26.588Z,1.61
2023-01-20T20:29:56.543Z,1.71
2023-01-20T20:32:23.986Z,1.76
2023-01-20T20:34:52.052Z,1.71
2023-01-20T20:37:18.757Z,1.61
2023-01-20T20:39:45.840Z,1.57
2023-01-20T20:42:13.400Z,1.40
2023-01-20T20:44:41.132Z,1.51
2023-01-20T20:47:07.974Z,1.42
2023-01-20T20:49:34.874Z,1.22
2023-01-20T20:52:02.581Z,1.07
2023-01-20T20:54:29.363Z,1.31
2023-01-20T20:56:56.261Z,1.29
2023-01-20T20:59:24.831Z,1.24
2023-01-20T21:01:52.650Z,1.38
2023-01-20T21:04:19.528Z,1.39
2023-01-20T21:06:46.282Z,1.36
2023-01-20T21:09:13.014Z,1.21
2023-01-20T21:11:41.508Z,1.31
2023-01-20T21:14:10.109Z,1.05
2023-01-20T21:16:38.151Z,1.31
2023-01-20T21:19:05.355Z,1.16
2023-01-20T21:21:32.236Z,1.31
2023-01-20T21:23:59.816Z,1.12
2023-01-20T21:26:30.296Z,1.27
2023-01-20T21:29:02.098Z,1.33
2023-01-20T21:31:30.967Z,1.19
2023-01-20T21:33:58.785Z,1.15
2023-01-20T21:36:27.226Z,1.23
2023-01-20T21:38:54.337Z,1.20
2023-01-20T21:41:21.489Z,1.03
2023-01-20T21:44:07.327Z,1.16
2023-01-20T21:46:38.802Z,1.09
2023-01-20T21:49:25.520Z,0.93
2023-01-20T21:52:11.038Z,0.98
2023-01-20T21:54:39.921Z,0.95
2023-01-20T21:57:07.127Z,0.96
2023-01-20T21:59:33.917Z,0.86
2023-01-20T22:02:00.919Z,1.01
2023-01-20T22:04:27.879Z,0.85
2023-01-20T22:06:54.641Z,0.99
2023-01-20T22:09:21.577Z,0.85
2023-01-20T22:11:49.638Z,0.86
2023-01-20T22:14:16.543Z,0.97
2023-01-20T22:16:43.518Z,1.03
2023-01-20T22:19:13.464Z,0.60
2023-01-20T22:21:40.539Z,0.76
2023-01-20T22:24:07.777Z,0.96
2023-01-20T22:26:34.548Z,0.94
2023-01-20T22:29:01.707Z,1.08
2023-01-20T22:31:30.285Z,1.09
2023-01-20T22:33:59.710Z,1.05
2023-01-20T22:36:27.771Z,0.92
2023-01-20T22:38:54.844Z,0.83
2023-01-20T22:41:22.091Z,0.89
2023-01-20T22:43:51.129Z,0.83
2023-01-20T22:46:20.341Z,0.93
2023-01-20T22:48:47.649Z,0.86
2023-01-20T22:51:17.203Z,0.94
2023-01-20T22:53:44.501Z,0.96
2023-01-20T22:56:14.648Z,0.83
2023-01-20T22:58:43.470Z,0.90
2023-01-20T23:01:19.777Z,0.61
2023-01-20T23:03:46.916Z,0.87
2023-01-20T23:06:14.603Z,0.88
2023-01-20T23:08:42.050Z,0.73
2023-01-20T23:11:14.184Z,0.76
2023-01-20T23:13:41.872Z,0.68
2023-01-20T23:16:14.301Z,0.83
2023-01-20T23:18:41.315Z,0.73
2023-01-20T23:21:08.194Z,0.62
2023-01-20T23:23:35.553Z,0.70
2023-01-20T23:26:15.269Z,0.78
2023-01-20T23:28:43.212Z,0.81
2023-01-20T23:31:12.599Z,0.79
2023-01-20T23:33:41.310Z,0.74
2023-01-20T23:36:15.815Z,0.69
2023-01-20T23:38:43.613Z,0.58
2023-01-20T23:41:11.451Z,0.15
2023-01-20T23:43:38.239Z,0.51
2023-01-20T23:46:05.859Z,0.56
2023-01-20T23:48:34.349Z,0.30
2023-01-20T23:51:02.171Z,0.34
2023-01-20T23:53:30.989Z,0.47
2023-01-20T23:56:07.061Z,0.42
2023-01-20T23:58:33.922Z,0.43
